Ringling, OK (73456)

5:31 PM CDT on July 11, 2014 (GMT -0500)
Carter County Dist 2 (KOKVELMA2) Elev 933 ft | 34.25 °N, 97.50 °W | Change Station

Current weather conditions updated 9 minutes ago

Clear
Clear
92.3 °F
Feels Like 94 °F
N
8.0
Wind Variable Wind from South
Gusts 15.0 mph

Tomorrow is forecast to be Warmer than today.

Today
High -- | Low -- °F
--% Chance of Precip.
Yesterday
High -- | Low -- °F
Precip. -- in
6:27 AM 8:44 PM
Full, 100% visible
Pressure 30.05 in
Visibility 10.0 miles
Clouds Clear
Heat Index 94 °F
Dew Point 65 °F
Humidity 40%
Rainfall 0.00 in
Snow Depth Not available.
UV 5 out of 12
Pollen 4.80 out of 12
Air Quality Not available.
Flu Activity Local Activity
METAR K1F0 112215Z AUTO 21008KT 160V250 10SM CLR 34/12 A3005 RMK AO2

More Conditions Fewer Conditions

Pressure 30.05 in
Visibility 10.0 miles
Clouds Clear
Heat Index 94 °F
Dew Point 65 °F
Humidity 40%
Rainfall 0.00 in
Snow Depth Not available.
UV 5 out of 12
Pollen 4.80 out of 12
Air Quality Not available.
Flu Activity Local Activity
METAR K1F0 112215Z AUTO 21008KT 160V250 10SM CLR 34/12 A3005 RMK AO2

More Conditions Fewer Conditions

10-Day Weather Forecast

Almanac

Astronomy

Jul. 11, 2014 Rise Set
Actual Time 6:27 AM CDT 8:44 PM CDT
Civil Twilight 5:58 AM CDT 9:12 PM CDT
Nautical Twilight 5:23 AM CDT 9:48 PM CDT
Astronomical Twilight 4:44 AM CDT 10:26 PM CDT
Moon 7:58 PM CDT 5:38 AM CDT
Length of Visible Light 15h 14m
Length of Day
14h 16m
Tomorrow will be 0m 57s shorter.
Full, 100% of the Moon is Illuminated
Today
Full
Jul 12
Full
Jul 18
Last Quarter
Jul 26
New
Aug 3
First Quarter

Today's Extremes

State Highs State Lows

Community

WunderPhotos

Upload Photos

1,732,578 photos uploaded!

WunderBlogs® & News

Nearby

Snow Depth

Station Depth Elevation
No new snow has been reported.

Earthquake Activity

City Distance Mag. Time & Date
No recent earthquake activity has been reported nearby.
Minimum magnitude displayed is 2.5.

Coastal Water Temperatures

Place Temperature
No Stations Reporting

Nearby Weather Stations

Station Location Temp. Heat Index Dew Point Humidity Wind Precip. Elev Updated Type
Carter County Dist 2, Healdton, OK 92.3 °F 94 °F 65 °F 40% South  at  8.0 mph 0.00 in / hr 933 ft 5:21 PM CDT Normal
Grady/Oscar, Grady, OK 93.6 °F 95 °F 63 °F 36% WSW  at  6.0 mph 0.00 in / hr 896 ft 5:19 PM CDT Rapid Fire
Fox Volunteer Fire Department, Fox, OK 93.6 °F 94 °F 61 °F 34% SW  at  12.0 mph 0.00 in / hr 988 ft 5:30 PM CDT Normal
Carter County Dist 3, Lone Grove, OK 94.3 °F 96 °F 64 °F 37% South  at  13.0 mph 0.00 in / hr 927 ft 5:21 PM CDT Normal
Ratliff City PD, Ratliff City, OK 92.1 °F 94 °F 65 °F 40% SSE  at  2.0 mph 0.00 in / hr 1089 ft 5:24 PM CDT Normal
MesoWest WAURKA , Waurika, OK 100 °F 94 °F - - North  at  - 0.00 in / hr 861 ft 4:20 PM CDT MADIS
MesoWest COMNCH , Comanche, OK 94 °F 90 °F - - North  at  - 0.00 in / hr 994 ft 4:10 PM CDT MADIS

Show More Stations Show Fewer Stations